Tilbury, Canada
Current Conditions -  °F | °C
As of 10:00 PM on Thursday 27 Nov 2014 (Local Time) from CYCK Reporting Station
Broken Clouds Broken Clouds  
Wind Chill: 16°   Ceiling: 4600
Heat Index: 27°   Visibility: 9mi
Dew Point: 19°   Wind: 12mph
Humidity: 74%   Direction: 330°NNW
Pressure: 30.25"   Gusts: 18mph
Location:  42.25°N, 82.43°W
Report Text: CYCK 280300Z AUTO 33010G16KT 9SM BKN046 M03/M07 A3025 RMK SLP251
Loading
Personal Weather Stations






























Interactive Weather Map New forecast layout! Learn more

10-Day Weather Forecast

Advertisements
Track Severe Weather on mobile